Ahtanum, Washington
Current Conditions -  °F | °C
As of 4:53 PM on Tuesday 27 Jan 2015 (Local Time) from KYKM Reporting Station
Haze Haze  
Wind Chill: 34°   Ceiling: 500
Heat Index: 38°   Visibility: 4mi
Dew Point: 35°   Wind: 5mph
Humidity: 89%   Direction: 100°E
Pressure: 30.08"   Gusts: NA
Location:  46.5979°N, 120.534°W
Report Text: KYKM 280053Z 10004KT 4SM BR OVC005 03/02 A3008 RMK AO2 SLP196 T00330017
Loading
Personal Weather Stations






























Interactive Weather Map New forecast layout! Learn more

10-Day Weather Forecast

Advertisements
Track Severe Weather on mobile